sensor_id;sensor_type;location;lat;lon;timestamp;pressure;altitude;pressure_sealevel;temperature;humidity
48077;BME280;33854;57.708;12.008;2022-07-12T00:00:52;101414.44;;;13.77;100.00
48077;BME280;33854;57.708;12.008;2022-07-12T00:03:18;101421.59;;;13.74;100.00
48077;BME280;33854;57.708;12.008;2022-07-12T00:05:43;101419.25;;;13.67;100.00
48077;BME280;33854;57.708;12.008;2022-07-12T00:08:09;101412.84;;;13.56;100.00
48077;BME280;33854;57.708;12.008;2022-07-12T00:10:34;101415.38;;;13.57;100.00
48077;BME280;33854;57.708;12.008;2022-07-12T00:12:59;101417.22;;;13.55;100.00
48077;BME280;33854;57.708;12.008;2022-07-12T00:15:25;101410.28;;;13.54;100.00
48077;BME280;33854;57.708;12.008;2022-07-12T00:17:50;101414.81;;;13.51;100.00
48077;BME280;33854;57.708;12.008;2022-07-12T00:20:16;101412.25;;;13.49;100.00
48077;BME280;33854;57.708;12.008;2022-07-12T00:22:42;101410.88;;;13.42;100.00
48077;BME280;33854;57.708;12.008;2022-07-12T00:25:07;101411.06;;;13.38;100.00
48077;BME280;33854;57.708;12.008;2022-07-12T00:27:33;101410.38;;;13.34;100.00
48077;BME280;33854;57.708;12.008;2022-07-12T00:29:58;101418.88;;;13.39;100.00
48077;BME280;33854;57.708;12.008;2022-07-12T00:32:24;101416.97;;;13.43;100.00
48077;BME280;33854;57.708;12.008;2022-07-12T00:34:49;101418.78;;;13.41;100.00
48077;BME280;33854;57.708;12.008;2022-07-12T00:37:15;101411.06;;;13.38;100.00
48077;BME280;33854;57.708;12.008;2022-07-12T00:39:40;101417.16;;;13.38;100.00
48077;BME280;33854;57.708;12.008;2022-07-12T00:42:05;101413.91;;;13.33;100.00
48077;BME280;33854;57.708;12.008;2022-07-12T00:44:31;101404.00;;;13.21;100.00
48077;BME280;33854;57.708;12.008;2022-07-12T00:46:59;101416.19;;;13.22;100.00
48077;BME280;33854;57.708;12.008;2022-07-12T00:49:25;101419.81;;;13.20;100.00
48077;BME280;33854;57.708;12.008;2022-07-12T00:51:51;101409.38;;;13.18;100.00
48077;BME280;33854;57.708;12.008;2022-07-12T00:54:16;101411.28;;;13.14;100.00
48077;BME280;33854;57.708;12.008;2022-07-12T00:56:43;101404.50;;;13.10;100.00
48077;BME280;33854;57.708;12.008;2022-07-12T00:59:09;101405.59;;;13.05;100.00
48077;BME280;33854;57.708;12.008;2022-07-12T01:01:35;101413.50;;;13.03;100.00
48077;BME280;33854;57.708;12.008;2022-07-12T01:04:01;101409.25;;;13.01;100.00
48077;BME280;33854;57.708;12.008;2022-07-12T01:06:29;101400.25;;;12.88;100.00
48077;BME280;33854;57.708;12.008;2022-07-12T01:08:56;101402.16;;;12.84;100.00
48077;BME280;33854;57.708;12.008;2022-07-12T01:11:21;101422.22;;;12.85;100.00
48077;BME280;33854;57.708;12.008;2022-07-12T01:13:47;101423.97;;;12.85;100.00
48077;BME280;33854;57.708;12.008;2022-07-12T01:16:13;101421.53;;;12.80;100.00
48077;BME280;33854;57.708;12.008;2022-07-12T01:18:40;101420.00;;;12.76;100.00
48077;BME280;33854;57.708;12.008;2022-07-12T01:21:07;101438.25;;;12.78;100.00
48077;BME280;33854;57.708;12.008;2022-07-12T01:23:33;101443.75;;;12.72;100.00
48077;BME280;33854;57.708;12.008;2022-07-12T01:26:00;101450.69;;;12.73;100.00
48077;BME280;33854;57.708;12.008;2022-07-12T01:28:25;101448.09;;;12.73;100.00
48077;BME280;33854;57.708;12.008;2022-07-12T01:30:52;101455.94;;;12.73;100.00
48077;BME280;33854;57.708;12.008;2022-07-12T01:33:18;101443.56;;;12.56;100.00
48077;BME280;33854;57.708;12.008;2022-07-12T01:35:44;101466.75;;;12.65;100.00
48077;BME280;33854;57.708;12.008;2022-07-12T01:38:11;101474.47;;;12.68;100.00
48077;BME280;33854;57.708;12.008;2022-07-12T01:40:37;101482.47;;;12.65;100.00
48077;BME280;33854;57.708;12.008;2022-07-12T01:43:02;101491.22;;;12.64;100.00
48077;BME280;33854;57.708;12.008;2022-07-12T01:45:28;101486.06;;;12.63;100.00
48077;BME280;33854;57.708;12.008;2022-07-12T01:47:53;101492.34;;;12.58;100.00
48077;BME280;33854;57.708;12.008;2022-07-12T01:50:19;101502.03;;;12.56;100.00
48077;BME280;33854;57.708;12.008;2022-07-12T01:52:44;101510.66;;;12.58;100.00
48077;BME280;33854;57.708;12.008;2022-07-12T01:55:11;101508.91;;;12.59;100.00
48077;BME280;33854;57.708;12.008;2022-07-12T01:57:38;101512.50;;;12.56;100.00
48077;BME280;33854;57.708;12.008;2022-07-12T02:00:06;101517.06;;;12.51;100.00
48077;BME280;33854;57.708;12.008;2022-07-12T02:02:33;101518.16;;;12.46;100.00
48077;BME280;33854;57.708;12.008;2022-07-12T02:05:02;101536.13;;;12.55;100.00
48077;BME280;33854;57.708;12.008;2022-07-12T02:07:28;101539.06;;;12.47;100.00
48077;BME280;33854;57.708;12.008;2022-07-12T02:09:53;101531.63;;;12.37;100.00
48077;BME280;33854;57.708;12.008;2022-07-12T02:12:19;101553.19;;;12.43;100.00
48077;BME280;33854;57.708;12.008;2022-07-12T02:14:45;101555.81;;;12.43;100.00
48077;BME280;33854;57.708;12.008;2022-07-12T02:17:10;101534.41;;;12.34;100.00
48077;BME280;33854;57.708;12.008;2022-07-12T02:19:36;101556.66;;;12.44;100.00
48077;BME280;33854;57.708;12.008;2022-07-12T02:22:01;101552.41;;;12.41;100.00
48077;BME280;33854;57.708;12.008;2022-07-12T02:24:27;101559.59;;;12.36;100.00
48077;BME280;33854;57.708;12.008;2022-07-12T02:26:52;101573.38;;;12.40;100.00
48077;BME280;33854;57.708;12.008;2022-07-12T02:29:17;101565.63;;;12.38;100.00
48077;BME280;33854;57.708;12.008;2022-07-12T02:31:43;101569.94;;;12.39;100.00
48077;BME280;33854;57.708;12.008;2022-07-12T02:34:08;101572.56;;;12.39;100.00
48077;BME280;33854;57.708;12.008;2022-07-12T02:36:33;101562.09;;;12.39;100.00
48077;BME280;33854;57.708;12.008;2022-07-12T02:39:00;101570.78;;;12.40;100.00
48077;BME280;33854;57.708;12.008;2022-07-12T02:41:33;101569.94;;;12.39;100.00
48077;BME280;33854;57.708;12.008;2022-07-12T02:43:59;101569.94;;;12.39;100.00
48077;BME280;33854;57.708;12.008;2022-07-12T02:46:25;101581.31;;;12.38;100.00
48077;BME280;33854;57.708;12.008;2022-07-12T02:48:51;101580.34;;;12.41;100.00
48077;BME280;33854;57.708;12.008;2022-07-12T02:51:17;101575.72;;;12.47;100.00
48077;BME280;33854;57.708;12.008;2022-07-12T02:53:43;101589.28;;;12.57;100.00
48077;BME280;33854;57.708;12.008;2022-07-12T02:56:09;101587.47;;;12.59;100.00
48077;BME280;33854;57.708;12.008;2022-07-12T02:58:35;101592.69;;;12.59;100.00
48077;BME280;33854;57.708;12.008;2022-07-12T03:01:01;101600.56;;;12.59;100.00
48077;BME280;33854;57.708;12.008;2022-07-12T03:03:27;101599.69;;;12.58;100.00
48077;BME280;33854;57.708;12.008;2022-07-12T03:05:52;101597.19;;;12.55;100.00
48077;BME280;33854;57.708;12.008;2022-07-12T03:08:17;101589.47;;;12.52;100.00
48077;BME280;33854;57.708;12.008;2022-07-12T03:10:43;101594.59;;;12.55;100.00
48077;BME280;33854;57.708;12.008;2022-07-12T03:13:08;101601.66;;;12.53;100.00
48077;BME280;33854;57.708;12.008;2022-07-12T03:15:35;101599.94;;;12.52;100.00
48077;BME280;33854;57.708;12.008;2022-07-12T03:18:00;101603.47;;;12.51;100.00
48077;BME280;33854;57.708;12.008;2022-07-12T03:20:29;101608.66;;;12.53;100.00
48077;BME280;33854;57.708;12.008;2022-07-12T03:22:55;101599.91;;;12.54;100.00
48077;BME280;33854;57.708;12.008;2022-07-12T03:25:21;101604.94;;;12.58;100.00
48077;BME280;33854;57.708;12.008;2022-07-12T03:27:47;101606.38;;;12.66;100.00
48077;BME280;33854;57.708;12.008;2022-07-12T03:30:13;101607.97;;;12.70;100.00
48077;BME280;33854;57.708;12.008;2022-07-12T03:32:40;101615.50;;;12.77;100.00
48077;BME280;33854;57.708;12.008;2022-07-12T03:35:06;101612.84;;;12.79;100.00
48077;BME280;33854;57.708;12.008;2022-07-12T03:37:46;101611.47;;;12.90;100.00
48077;BME280;33854;57.708;12.008;2022-07-12T03:40:12;101613.72;;;12.99;100.00
48077;BME280;33854;57.708;12.008;2022-07-12T03:42:39;101609.03;;;13.06;100.00
48077;BME280;33854;57.708;12.008;2022-07-12T03:45:04;101598.53;;;13.07;100.00
48077;BME280;33854;57.708;12.008;2022-07-12T03:47:30;101601.34;;;13.23;100.00
48077;BME280;33854;57.708;12.008;2022-07-12T03:49:56;101604.50;;;13.31;100.00
48077;BME280;33854;57.708;12.008;2022-07-12T03:52:22;101599.84;;;13.38;100.00
48077;BME280;33854;57.708;12.008;2022-07-12T03:54:47;101615.13;;;13.48;100.00
48077;BME280;33854;57.708;12.008;2022-07-12T03:57:13;101604.41;;;13.53;100.00
48077;BME280;33854;57.708;12.008;2022-07-12T03:59:40;101607.66;;;13.58;100.00
48077;BME280;33854;57.708;12.008;2022-07-12T04:02:06;101605.78;;;13.61;100.00
48077;BME280;33854;57.708;12.008;2022-07-12T04:04:31;101607.28;;;13.67;100.00
48077;BME280;33854;57.708;12.008;2022-07-12T04:06:56;101610.59;;;13.70;100.00
48077;BME280;33854;57.708;12.008;2022-07-12T04:09:22;101606.91;;;13.75;100.00
48077;BME280;33854;57.708;12.008;2022-07-12T04:11:47;101601.25;;;13.84;100.00
48077;BME280;33854;57.708;12.008;2022-07-12T04:14:13;101611.41;;;13.91;100.00
48077;BME280;33854;57.708;12.008;2022-07-12T04:16:38;101612.47;;;14.06;100.00
48077;BME280;33854;57.708;12.008;2022-07-12T04:19:04;101602.38;;;14.15;100.00
48077;BME280;33854;57.708;12.008;2022-07-12T04:21:31;101590.75;;;14.21;100.00
48077;BME280;33854;57.708;12.008;2022-07-12T04:23:56;101581.47;;;14.33;100.00
48077;BME280;33854;57.708;12.008;2022-07-12T04:26:22;101577.53;;;14.41;100.00
48077;BME280;33854;57.708;12.008;2022-07-12T04:28:47;101429.25;;;14.48;100.00
48077;BME280;33854;57.708;12.008;2022-07-12T04:31:13;101401.06;;;14.52;100.00
48077;BME280;33854;57.708;12.008;2022-07-12T04:33:38;101396.31;;;14.58;100.00
48077;BME280;33854;57.708;12.008;2022-07-12T04:36:04;101367.28;;;14.61;100.00
48077;BME280;33854;57.708;12.008;2022-07-12T04:38:29;101352.72;;;14.71;100.00
48077;BME280;33854;57.708;12.008;2022-07-12T04:40:55;101349.00;;;14.75;100.00
48077;BME280;33854;57.708;12.008;2022-07-12T04:43:20;101330.22;;;14.83;100.00
48077;BME280;33854;57.708;12.008;2022-07-12T04:45:48;101326.72;;;14.98;100.00
48077;BME280;33854;57.708;12.008;2022-07-12T04:48:13;101320.13;;;15.07;100.00
48077;BME280;33854;57.708;12.008;2022-07-12T04:50:39;101308.44;;;15.12;100.00
48077;BME280;33854;57.708;12.008;2022-07-12T04:53:04;101302.22;;;15.29;100.00
48077;BME280;33854;57.708;12.008;2022-07-12T04:55:30;101305.84;;;15.42;100.00
48077;BME280;33854;57.708;12.008;2022-07-12T04:57:56;101290.25;;;15.55;100.00
48077;BME280;33854;57.708;12.008;2022-07-12T05:00:21;101292.94;;;15.69;100.00
48077;BME280;33854;57.708;12.008;2022-07-12T05:02:47;101292.88;;;15.84;100.00
48077;BME280;33854;57.708;12.008;2022-07-12T05:05:13;101295.91;;;15.92;100.00
48077;BME280;33854;57.708;12.008;2022-07-12T05:07:40;101293.69;;;16.01;100.00
48077;BME280;33854;57.708;12.008;2022-07-12T05:10:05;101298.28;;;16.11;100.00
48077;BME280;33854;57.708;12.008;2022-07-12T05:12:31;101300.63;;;16.16;100.00
48077;BME280;33854;57.708;12.008;2022-07-12T05:14:56;101312.50;;;16.23;100.00
48077;BME280;33854;57.708;12.008;2022-07-12T05:17:21;101309.50;;;16.29;100.00
48077;BME280;33854;57.708;12.008;2022-07-12T05:19:47;101313.06;;;16.42;100.00
48077;BME280;33854;57.708;12.008;2022-07-12T05:22:12;101311.41;;;16.41;100.00
48077;BME280;33854;57.708;12.008;2022-07-12T05:24:38;101295.66;;;16.39;100.00
48077;BME280;33854;57.708;12.008;2022-07-12T05:27:03;101304.53;;;16.52;100.00
48077;BME280;33854;57.708;12.008;2022-07-12T05:29:29;101300.91;;;16.55;100.00
48077;BME280;33854;57.708;12.008;2022-07-12T05:31:55;101289.59;;;16.67;100.00
48077;BME280;33854;57.708;12.008;2022-07-12T05:34:21;101307.09;;;16.68;100.00
48077;BME280;33854;57.708;12.008;2022-07-12T05:36:46;101296.91;;;16.76;100.00
48077;BME280;33854;57.708;12.008;2022-07-12T05:39:12;101292.28;;;16.80;100.00
48077;BME280;33854;57.708;12.008;2022-07-12T05:41:37;101302.56;;;16.84;100.00
48077;BME280;33854;57.708;12.008;2022-07-12T05:44:03;101308.00;;;16.95;100.00
48077;BME280;33854;57.708;12.008;2022-07-12T05:46:28;101313.28;;;16.95;100.00
48077;BME280;33854;57.708;12.008;2022-07-12T05:48:54;101321.19;;;16.95;100.00
48077;BME280;33854;57.708;12.008;2022-07-12T05:51:20;101315.41;;;17.03;100.00
48077;BME280;33854;57.708;12.008;2022-07-12T05:54:03;101309.66;;;17.10;100.00
48077;BME280;33854;57.708;12.008;2022-07-12T05:56:29;101307.28;;;17.20;100.00
48077;BME280;33854;57.708;12.008;2022-07-12T05:58:56;101303.75;;;17.34;100.00
48077;BME280;33854;57.708;12.008;2022-07-12T06:01:22;101312.22;;;17.39;100.00
48077;BME280;33854;57.708;12.008;2022-07-12T06:03:47;101310.28;;;17.55;100.00
48077;BME280;33854;57.708;12.008;2022-07-12T06:06:12;101304.63;;;17.61;100.00
48077;BME280;33854;57.708;12.008;2022-07-12T06:08:38;101314.97;;;17.64;100.00
48077;BME280;33854;57.708;12.008;2022-07-12T06:11:04;101323.06;;;17.34;100.00
48077;BME280;33854;57.708;12.008;2022-07-12T06:13:29;101328.78;;;17.41;100.00
48077;BME280;33854;57.708;12.008;2022-07-12T06:15:55;101332.16;;;17.57;100.00
48077;BME280;33854;57.708;12.008;2022-07-12T06:18:24;101322.91;;;17.64;100.00
48077;BME280;33854;57.708;12.008;2022-07-12T06:20:50;101331.75;;;17.63;100.00
48077;BME280;33854;57.708;12.008;2022-07-12T06:23:15;101331.75;;;17.63;100.00
48077;BME280;33854;57.708;12.008;2022-07-12T06:25:40;101327.63;;;17.45;100.00
48077;BME280;33854;57.708;12.008;2022-07-12T06:28:06;101342.06;;;17.39;100.00
48077;BME280;33854;57.708;12.008;2022-07-12T06:30:31;101343.31;;;17.34;100.00
48077;BME280;33854;57.708;12.008;2022-07-12T06:32:57;101355.41;;;17.24;100.00
48077;BME280;33854;57.708;12.008;2022-07-12T06:35:22;101357.28;;;17.36;100.00
48077;BME280;33854;57.708;12.008;2022-07-12T06:37:47;101361.38;;;17.40;100.00
48077;BME280;33854;57.708;12.008;2022-07-12T06:40:13;101378.78;;;17.71;100.00
48077;BME280;33854;57.708;12.008;2022-07-12T06:42:42;101384.88;;;17.71;100.00
48077;BME280;33854;57.708;12.008;2022-07-12T06:45:08;101404.22;;;17.72;100.00
48077;BME280;33854;57.708;12.008;2022-07-12T06:47:34;101413.63;;;17.76;100.00
48077;BME280;33854;57.708;12.008;2022-07-12T06:49:59;101431.34;;;17.74;100.00
48077;BME280;33854;57.708;12.008;2022-07-12T06:52:25;101438.00;;;17.93;100.00
48077;BME280;33854;57.708;12.008;2022-07-12T06:54:51;101452.19;;;18.05;100.00
48077;BME280;33854;57.708;12.008;2022-07-12T06:57:16;101451.47;;;18.15;100.00
48077;BME280;33854;57.708;12.008;2022-07-12T06:59:41;101450.97;;;18.23;100.00
48077;BME280;33854;57.708;12.008;2022-07-12T07:02:07;101452.81;;;18.08;100.00
48077;BME280;33854;57.708;12.008;2022-07-12T07:04:32;101458.22;;;18.07;100.00
48077;BME280;33854;57.708;12.008;2022-07-12T07:06:58;101458.81;;;17.98;100.00
48077;BME280;33854;57.708;12.008;2022-07-12T07:09:23;101469.06;;;18.02;100.00
48077;BME280;33854;57.708;12.008;2022-07-12T07:11:48;101468.72;;;18.21;100.00
48077;BME280;33854;57.708;12.008;2022-07-12T07:14:14;101455.56;;;18.46;100.00
48077;BME280;33854;57.708;12.008;2022-07-12T07:16:39;101459.91;;;18.47;100.00
48077;BME280;33854;57.708;12.008;2022-07-12T07:19:05;101457.75;;;18.40;100.00
48077;BME280;33854;57.708;12.008;2022-07-12T07:21:31;101456.16;;;18.37;100.00
48077;BME280;33854;57.708;12.008;2022-07-12T07:23:57;101456.56;;;18.58;100.00
48077;BME280;33854;57.708;12.008;2022-07-12T07:26:23;101444.97;;;18.46;100.00
48077;BME280;33854;57.708;12.008;2022-07-12T07:28:48;101453.19;;;18.56;100.00
48077;BME280;33854;57.708;12.008;2022-07-12T07:31:36;101468.00;;;18.71;100.00
48077;BME280;33854;57.708;12.008;2022-07-12T07:34:02;101473.06;;;18.74;100.00
48077;BME280;33854;57.708;12.008;2022-07-12T07:36:27;101451.28;;;18.83;100.00
48077;BME280;33854;57.708;12.008;2022-07-12T07:38:53;101476.16;;;18.93;100.00
48077;BME280;33854;57.708;12.008;2022-07-12T07:41:18;101480.16;;;18.61;100.00
48077;BME280;33854;57.708;12.008;2022-07-12T07:43:44;101477.25;;;18.51;100.00
48077;BME280;33854;57.708;12.008;2022-07-12T07:46:09;101475.19;;;18.56;100.00
48077;BME280;33854;57.708;12.008;2022-07-12T07:48:35;101482.75;;;18.48;100.00
48077;BME280;33854;57.708;12.008;2022-07-12T07:51:00;101486.16;;;18.50;100.00
48077;BME280;33854;57.708;12.008;2022-07-12T07:53:26;101489.47;;;18.54;100.00
48077;BME280;33854;57.708;12.008;2022-07-12T07:55:51;101488.63;;;18.91;100.00
48077;BME280;33854;57.708;12.008;2022-07-12T07:58:17;101486.19;;;19.01;100.00
48077;BME280;33854;57.708;12.008;2022-07-12T08:00:42;101489.16;;;18.71;100.00
48077;BME280;33854;57.708;12.008;2022-07-12T08:03:07;101493.16;;;18.64;100.00
48077;BME280;33854;57.708;12.008;2022-07-12T08:05:33;101487.88;;;18.64;100.00
48077;BME280;33854;57.708;12.008;2022-07-12T08:07:58;101493.38;;;18.61;100.00
48077;BME280;33854;57.708;12.008;2022-07-12T08:10:25;101488.72;;;18.64;100.00
48077;BME280;33854;57.708;12.008;2022-07-12T08:12:50;101488.03;;;18.48;100.00
48077;BME280;33854;57.708;12.008;2022-07-12T08:15:16;101479.09;;;18.63;100.00
48077;BME280;33854;57.708;12.008;2022-07-12T08:17:41;101479.63;;;18.68;100.00
48077;BME280;33854;57.708;12.008;2022-07-12T08:20:07;101487.16;;;18.87;100.00
48077;BME280;33854;57.708;12.008;2022-07-12T08:22:33;101476.88;;;18.95;100.00
48077;BME280;33854;57.708;12.008;2022-07-12T08:24:59;101485.44;;;18.86;100.00
48077;BME280;33854;57.708;12.008;2022-07-12T08:27:24;101490.31;;;18.92;100.00
48077;BME280;33854;57.708;12.008;2022-07-12T08:29:50;101501.56;;;19.08;100.00
48077;BME280;33854;57.708;12.008;2022-07-12T08:32:15;101495.50;;;19.06;100.00
48077;BME280;33854;57.708;12.008;2022-07-12T08:34:41;101489.16;;;19.21;100.00
48077;BME280;33854;57.708;12.008;2022-07-12T08:37:07;101504.19;;;19.33;100.00
48077;BME280;33854;57.708;12.008;2022-07-12T08:39:33;101498.78;;;18.97;100.00
48077;BME280;33854;57.708;12.008;2022-07-12T08:41:58;101509.69;;;18.93;100.00
48077;BME280;33854;57.708;12.008;2022-07-12T08:44:24;101501.63;;;18.94;100.00
48077;BME280;33854;57.708;12.008;2022-07-12T08:46:49;101513.19;;;18.93;100.00
48077;BME280;33854;57.708;12.008;2022-07-12T08:49:15;101515.56;;;18.58;100.00
48077;BME280;33854;57.708;12.008;2022-07-12T08:51:40;101504.91;;;18.33;100.00
48077;BME280;33854;57.708;12.008;2022-07-12T08:54:13;101503.66;;;18.39;100.00
48077;BME280;33854;57.708;12.008;2022-07-12T08:56:40;101501.66;;;18.42;100.00
48077;BME280;33854;57.708;12.008;2022-07-12T08:59:21;101500.03;;;18.40;100.00
48077;BME280;33854;57.708;12.008;2022-07-12T09:01:51;101488.50;;;18.80;100.00
48077;BME280;33854;57.708;12.008;2022-07-12T09:04:18;101483.13;;;18.94;100.00
48077;BME280;33854;57.708;12.008;2022-07-12T09:06:45;101474.66;;;19.14;100.00
48077;BME280;33854;57.708;12.008;2022-07-12T09:09:11;101481.94;;;19.23;100.00
48077;BME280;33854;57.708;12.008;2022-07-12T09:11:46;101476.91;;;19.08;100.00
48077;BME280;33854;57.708;12.008;2022-07-12T09:14:12;101487.97;;;19.38;100.00
48077;BME280;33854;57.708;12.008;2022-07-12T09:16:43;101479.78;;;19.66;100.00
48077;BME280;33854;57.708;12.008;2022-07-12T09:19:16;101497.72;;;19.63;100.00
48077;BME280;33854;57.708;12.008;2022-07-12T09:21:47;101508.81;;;19.68;100.00
48077;BME280;33854;57.708;12.008;2022-07-12T09:24:14;101492.63;;;19.60;100.00
48077;BME280;33854;57.708;12.008;2022-07-12T09:26:40;101492.31;;;19.52;100.00
48077;BME280;33854;57.708;12.008;2022-07-12T09:29:07;101492.53;;;19.85;100.00
48077;BME280;33854;57.708;12.008;2022-07-12T09:31:39;101489.97;;;19.96;100.00
48077;BME280;33854;57.708;12.008;2022-07-12T09:34:05;101502.22;;;19.73;100.00
48077;BME280;33854;57.708;12.008;2022-07-12T09:36:56;101501.66;;;19.81;100.00
48077;BME280;33854;57.708;12.008;2022-07-12T09:39:22;101493.56;;;20.19;100.00
48077;BME280;33854;57.708;12.008;2022-07-12T09:41:49;101500.22;;;20.01;100.00
48077;BME280;33854;57.708;12.008;2022-07-12T09:44:16;101494.38;;;20.08;100.00
48077;BME280;33854;57.708;12.008;2022-07-12T09:46:44;101491.31;;;20.02;100.00
48077;BME280;33854;57.708;12.008;2022-07-12T09:49:10;101495.09;;;20.10;100.00
48077;BME280;33854;57.708;12.008;2022-07-12T09:51:37;101490.69;;;20.45;100.00
48077;BME280;33854;57.708;12.008;2022-07-12T09:54:03;101496.75;;;20.59;100.00
48077;BME280;33854;57.708;12.008;2022-07-12T09:56:34;101499.94;;;20.16;100.00
48077;BME280;33854;57.708;12.008;2022-07-12T09:59:01;101501.91;;;20.02;100.00
48077;BME280;33854;57.708;12.008;2022-07-12T10:01:30;101486.63;;;20.05;100.00
48077;BME280;33854;57.708;12.008;2022-07-12T10:03:59;101487.03;;;20.35;100.00
48077;BME280;33854;57.708;12.008;2022-07-12T10:08:50;101474.47;;;20.03;100.00
48077;BME280;33854;57.708;12.008;2022-07-12T10:11:16;101469.91;;;20.28;100.00
48077;BME280;33854;57.708;12.008;2022-07-12T10:13:42;101472.59;;;20.39;100.00
48077;BME280;33854;57.708;12.008;2022-07-12T10:16:10;101480.31;;;20.77;100.00
48077;BME280;33854;57.708;12.008;2022-07-12T10:18:37;101485.00;;;20.74;100.00
48077;BME280;33854;57.708;12.008;2022-07-12T10:21:17;101474.41;;;20.96;100.00
48077;BME280;33854;57.708;12.008;2022-07-12T10:23:44;101480.75;;;21.17;100.00
48077;BME280;33854;57.708;12.008;2022-07-12T10:29:04;101479.59;;;20.97;100.00
48077;BME280;33854;57.708;12.008;2022-07-12T10:31:38;101475.88;;;21.00;100.00
48077;BME280;33854;57.708;12.008;2022-07-12T10:39:24;101463.41;;;20.89;100.00
48077;BME280;33854;57.708;12.008;2022-07-12T10:47:03;101464.78;;;21.50;100.00
48077;BME280;33854;57.708;12.008;2022-07-12T10:49:32;101460.19;;;21.64;100.00
48077;BME280;33854;57.708;12.008;2022-07-12T10:52:25;101457.41;;;21.65;100.00
48077;BME280;33854;57.708;12.008;2022-07-12T10:57:41;101473.38;;;21.43;100.00
48077;BME280;33854;57.708;12.008;2022-07-12T11:00:09;101460.22;;;21.30;100.00
48077;BME280;33854;57.708;12.008;2022-07-12T11:02:35;101448.75;;;21.30;100.00
48077;BME280;33854;57.708;12.008;2022-07-12T11:05:00;101466.00;;;21.57;100.00
48077;BME280;33854;57.708;12.008;2022-07-12T11:07:27;101463.72;;;21.20;100.00
48077;BME280;33854;57.708;12.008;2022-07-12T11:09:53;101466.00;;;21.35;100.00
48077;BME280;33854;57.708;12.008;2022-07-12T11:12:19;101463.00;;;21.40;100.00
48077;BME280;33854;57.708;12.008;2022-07-12T11:14:45;101461.66;;;21.45;100.00
48077;BME280;33854;57.708;12.008;2022-07-12T11:17:10;101449.94;;;21.48;100.00
48077;BME280;33854;57.708;12.008;2022-07-12T11:19:36;101453.41;;;21.71;100.00
48077;BME280;33854;57.708;12.008;2022-07-12T11:22:01;101457.22;;;22.00;100.00
48077;BME280;33854;57.708;12.008;2022-07-12T11:24:29;101443.38;;;21.74;100.00
48077;BME280;33854;57.708;12.008;2022-07-12T11:26:55;101446.41;;;22.12;100.00
48077;BME280;33854;57.708;12.008;2022-07-12T11:29:22;101440.66;;;22.28;100.00
48077;BME280;33854;57.708;12.008;2022-07-12T11:31:48;101448.78;;;22.15;100.00
48077;BME280;33854;57.708;12.008;2022-07-12T11:34:23;101443.50;;;22.36;100.00
48077;BME280;33854;57.708;12.008;2022-07-12T11:36:58;101456.50;;;22.30;100.00
48077;BME280;33854;57.708;12.008;2022-07-12T11:39:38;101456.97;;;22.03;100.00
48077;BME280;33854;57.708;12.008;2022-07-12T11:42:04;101440.59;;;22.39;100.00
48077;BME280;33854;57.708;12.008;2022-07-12T11:44:50;101431.88;;;22.69;100.00
48077;BME280;33854;57.708;12.008;2022-07-12T11:47:20;101440.59;;;23.11;100.00
48077;BME280;33854;57.708;12.008;2022-07-12T11:49:49;101448.38;;;22.93;100.00
48077;BME280;33854;57.708;12.008;2022-07-12T11:52:16;101449.66;;;22.99;100.00
48077;BME280;33854;57.708;12.008;2022-07-12T11:54:46;101441.28;;;23.03;100.00
48077;BME280;33854;57.708;12.008;2022-07-12T11:57:12;101440.41;;;23.82;100.00
48077;BME280;33854;57.708;12.008;2022-07-12T11:59:38;101444.06;;;23.81;100.00
48077;BME280;33854;57.708;12.008;2022-07-12T12:04:30;101445.53;;;24.24;100.00
48077;BME280;33854;57.708;12.008;2022-07-12T12:06:55;101444.75;;;24.60;100.00
48077;BME280;33854;57.708;12.008;2022-07-12T12:09:21;101441.63;;;24.93;100.00
48077;BME280;33854;57.708;12.008;2022-07-12T12:11:46;101439.69;;;24.76;100.00
48077;BME280;33854;57.708;12.008;2022-07-12T12:14:11;101447.13;;;24.82;100.00
48077;BME280;33854;57.708;12.008;2022-07-12T12:16:37;101448.59;;;25.14;100.00
48077;BME280;33854;57.708;12.008;2022-07-12T12:19:03;101458.84;;;25.73;100.00
48077;BME280;33854;57.708;12.008;2022-07-12T12:21:28;101467.19;;;25.87;100.00
48077;BME280;33854;57.708;12.008;2022-07-12T12:24:09;101463.53;;;25.88;100.00
48077;BME280;33854;57.708;12.008;2022-07-12T12:26:35;101468.97;;;25.69;100.00
48077;BME280;33854;57.708;12.008;2022-07-12T12:29:00;101461.72;;;26.24;100.00
48077;BME280;33854;57.708;12.008;2022-07-12T12:31:27;101464.34;;;26.06;100.00
48077;BME280;33854;57.708;12.008;2022-07-12T12:33:54;101457.31;;;26.41;100.00
48077;BME280;33854;57.708;12.008;2022-07-12T12:38:49;101450.63;;;26.19;100.00
48077;BME280;33854;57.708;12.008;2022-07-12T12:41:15;101450.69;;;26.27;100.00
48077;BME280;33854;57.708;12.008;2022-07-12T12:43:41;101454.41;;;26.52;100.00
48077;BME280;33854;57.708;12.008;2022-07-12T12:46:07;101448.56;;;27.00;100.00
48077;BME280;33854;57.708;12.008;2022-07-12T12:48:33;101466.97;;;25.54;100.00
48077;BME280;33854;57.708;12.008;2022-07-12T12:51:10;101462.47;;;26.34;100.00